Rechercher aéroport 
image banner adimage banner adimage banner ad
image banner ad

KPJC - Zelienople Muni

Situé à Zelienople, United States

ICAO - PJC, IATA -

Données fournies par Airmate  

Information générale

Coordonnées: N40°48'7" W80°9'39"
Élévation : 898 feet MSL.
Variation magnétique : -09° East
Voir autres Aéroports à Pennsylvania

Données opérationnelles

Special qualification required
Heure actuelle UTC:
Heure actuelle locale:
METAR: KBTP 131856Z AUTO VRB03KT 10SM FEW085 28/19 A2986 RMK AO2 SLP107 T02830189 $
Voir NOTAMs / SUP AIP / TFR affectant cet aéroport [VIEW]
Fréquences de communication: [VIEW]

Pistes:

Identifiant RWYQFULongueur (ft)Largeur (ft)SurfaceLDA (ft)
17165°493375ASPH4381
35345°493375ASPH4650

Coordonnées de l'aéroport

Adresse: Zelienople United States

Autres services d'aviation

Écoles de pilotage

Condor Aero Club

Condor Aero Club

Vue satellite de KPJC